Time;durP1;ratioP1;P1;durP2;ratioP2;P2;SDS_P1;SDS_P2;PMS_P1;PMS_P2;Temp;Humidity;BMP_temperature;BMP_pressure;BME280_temperature;BME280_humidity;BME280_pressure;Samples;Min_cycle;Max_cycle;Signal;HPM_P1;HPM_P2
2022/12/27 00:00:08;;;;;;;7.10;6.57;;;;;;;;;;4928995;29;20054;-69
2022/12/27 00:02:39;;;;;;;6.38;5.97;;;;;;;;;;4933275;29;20534;-69
2022/12/27 00:05:06;;;;;;;6.88;6.28;;;;;;;;;;4934154;29;20036;-69
2022/12/27 00:07:32;;;;;;;6.60;6.20;;;;;;;;;;4933750;29;20039;-69
2022/12/27 00:09:58;;;;;;;6.63;6.03;;;;;;;;;;4933574;29;20376;-69
2022/12/27 00:12:23;;;;;;;6.95;5.40;;;;;;;;;;4935147;29;20559;-69
2022/12/27 00:14:49;;;;;;;5.80;5.50;;;;;;;;;;4931841;29;20127;-69
2022/12/27 00:17:14;;;;;;;6.78;6.22;;;;;;;;;;4933932;29;20126;-69
2022/12/27 00:19:40;;;;;;;6.53;6.00;;;;;;;;;;4933719;29;20450;-69
2022/12/27 00:22:07;;;;;;;5.85;5.40;;;;;;;;;;4931181;29;20046;-69
2022/12/27 00:24:34;;;;;;;6.20;5.72;;;;;;;;;;4932701;29;20040;-69
2022/12/27 00:27:00;;;;;;;6.63;6.13;;;;;;;;;;4929976;29;20047;-69
2022/12/27 00:29:25;;;;;;;6.30;5.80;;;;;;;;;;4931087;29;20041;-69
2022/12/27 00:31:51;;;;;;;7.10;6.47;;;;;;;;;;4932689;28;20028;-69
2022/12/27 00:34:17;;;;;;;6.80;6.13;;;;;;;;;;4930343;29;20031;-69
2022/12/27 00:36:42;;;;;;;6.70;6.20;;;;;;;;;;4934998;29;20054;-69
2022/12/27 00:39:09;;;;;;;8.30;6.60;;;;;;;;;;4934469;28;20079;-69
2022/12/27 00:41:35;;;;;;;7.07;6.40;;;;;;;;;;4933468;29;20047;-69
2022/12/27 00:44:00;;;;;;;7.07;6.07;;;;;;;;;;4929543;29;20027;-69
2022/12/27 00:46:26;;;;;;;6.22;5.82;;;;;;;;;;4932014;29;20487;-69
2022/12/27 00:48:52;;;;;;;6.20;5.70;;;;;;;;;;4933359;29;20051;-69
2022/12/27 00:51:21;;;;;;;6.20;5.72;;;;;;;;;;4929635;29;20090;-69
2022/12/27 00:53:48;;;;;;;6.70;6.10;;;;;;;;;;4932404;29;20039;-69
2022/12/27 00:56:17;;;;;;;6.15;5.82;;;;;;;;;;4932782;29;20042;-72
2022/12/27 00:58:44;;;;;;;6.35;6.05;;;;;;;;;;4931481;29;20044;-69
2022/12/27 01:01:12;;;;;;;6.70;6.30;;;;;;;;;;4933392;29;20442;-69
2022/12/27 01:03:38;;;;;;;6.35;5.72;;;;;;;;;;4971166;23;20047;-75
2022/12/27 01:06:09;;;;;;;6.03;5.70;;;;;;;;;;4964273;28;20066;-76
2022/12/27 01:08:36;;;;;;;6.10;5.70;;;;;;;;;;4958892;28;20030;-76
2022/12/27 01:11:02;;;;;;;6.60;5.43;;;;;;;;;;4957716;28;20158;-76
2022/12/27 01:13:28;;;;;;;6.00;5.60;;;;;;;;;;4959717;28;20117;-75
2022/12/27 01:15:54;;;;;;;6.30;5.80;;;;;;;;;;4967602;28;20030;-75
2022/12/27 01:18:20;;;;;;;6.65;5.57;;;;;;;;;;4966982;28;20045;-75
2022/12/27 01:20:46;;;;;;;6.72;5.85;;;;;;;;;;4967813;28;20042;-76
2022/12/27 01:23:11;;;;;;;6.07;5.68;;;;;;;;;;4967343;28;20041;-76
2022/12/27 01:25:37;;;;;;;7.45;6.22;;;;;;;;;;4963757;28;20047;-76
2022/12/27 01:28:03;;;;;;;6.15;5.68;;;;;;;;;;4966507;28;20062;-75
2022/12/27 01:30:28;;;;;;;6.50;5.32;;;;;;;;;;4961744;28;20042;-75
2022/12/27 01:32:54;;;;;;;8.13;5.80;;;;;;;;;;4963966;28;20037;-76
2022/12/27 01:35:19;;;;;;;5.72;5.35;;;;;;;;;;4966092;28;20573;-75
2022/12/27 01:37:45;;;;;;;5.75;5.20;;;;;;;;;;4964583;28;20129;-75
2022/12/27 01:40:11;;;;;;;5.38;5.05;;;;;;;;;;4966212;28;20054;-75
2022/12/27 01:42:52;;;;;;;6.03;5.55;;;;;;;;;;4967617;28;20039;-75
2022/12/27 01:45:21;;;;;;;6.03;5.53;;;;;;;;;;4963614;28;20062;-75
2022/12/27 01:48:13;;;;;;;7.45;5.55;;;;;;;;;;4977843;28;20049;-75
2022/12/27 01:50:46;;;;;;;6.00;5.50;;;;;;;;;;4967165;28;20044;-75
2022/12/27 01:53:17;;;;;;;6.38;5.88;;;;;;;;;;4968054;28;20038;-75
2022/12/27 01:56:03;;;;;;;5.38;5.10;;;;;;;;;;4967843;28;20033;-75
2022/12/27 01:58:52;;;;;;;6.47;5.90;;;;;;;;;;4967214;28;20494;-75
2022/12/27 02:01:25;;;;;;;6.15;5.75;;;;;;;;;;4968768;28;20039;-75
2022/12/27 02:03:56;;;;;;;5.68;5.38;;;;;;;;;;4967158;28;20041;-75
2022/12/27 02:06:22;;;;;;;5.65;5.35;;;;;;;;;;4971055;28;20665;-75
2022/12/27 02:09:00;;;;;;;5.55;5.25;;;;;;;;;;4971307;28;20450;-75
2022/12/27 02:14:18;;;;;;;6.00;5.57;;;;;;;;;;4969693;28;20521;-75
2022/12/27 02:16:43;;;;;;;6.68;5.30;;;;;;;;;;4971976;28;20510;-75
2022/12/27 02:19:22;;;;;;;6.20;5.60;;;;;;;;;;4971908;28;20033;-75
2022/12/27 02:22:03;;;;;;;5.80;5.30;;;;;;;;;;4970065;28;20397;-75
2022/12/27 02:24:51;;;;;;;6.15;5.85;;;;;;;;;;4970534;28;20126;-75
2022/12/27 02:27:31;;;;;;;6.10;5.70;;;;;;;;;;4970664;28;20039;-75
2022/12/27 02:30:08;;;;;;;5.50;5.20;;;;;;;;;;4968507;28;20034;-75
2022/12/27 02:32:40;;;;;;;6.22;5.82;;;;;;;;;;4970254;28;20042;-75
2022/12/27 02:35:26;;;;;;;5.60;5.30;;;;;;;;;;4969556;28;20426;-75
2022/12/27 02:38:04;;;;;;;5.90;5.55;;;;;;;;;;4966098;28;20486;-76
2022/12/27 02:54:55;;;;;;;5.65;5.35;;;;;;;;;;4966154;28;20035;-75
2022/12/27 02:57:26;;;;;;;6.03;5.70;;;;;;;;;;4969811;28;20039;-75
2022/12/27 03:03:22;;;;;;;5.93;5.63;;;;;;;;;;4969483;28;20030;-76
2022/12/27 03:09:09;;;;;;;5.95;5.55;;;;;;;;;;4970251;28;20122;-76
2022/12/27 03:17:35;;;;;;;7.82;5.95;;;;;;;;;;4967070;28;20042;-75
2022/12/27 03:25:47;;;;;;;6.18;5.70;;;;;;;;;;4976842;28;20398;-76
2022/12/27 03:39:55;;;;;;;6.13;5.72;;;;;;;;;;4968485;28;20064;-76
2022/12/27 03:45:08;;;;;;;5.70;5.40;;;;;;;;;;4965250;28;19953;-77
2022/12/27 03:47:54;;;;;;;5.78;5.32;;;;;;;;;;4966045;28;20050;-77
2022/12/27 03:50:34;;;;;;;5.63;5.32;;;;;;;;;;4967289;28;20086;-76
2022/12/27 03:53:10;;;;;;;5.50;5.20;;;;;;;;;;4969204;28;20101;-75
2022/12/27 03:55:37;;;;;;;5.43;5.15;;;;;;;;;;4969522;28;20081;-76
2022/12/27 03:58:03;;;;;;;6.25;5.57;;;;;;;;;;4968920;28;20093;-76
2022/12/27 04:00:28;;;;;;;5.75;5.35;;;;;;;;;;4969928;28;20030;-76
2022/12/27 04:02:54;;;;;;;5.68;5.28;;;;;;;;;;4965891;28;20727;-76
2022/12/27 04:05:19;;;;;;;5.45;5.15;;;;;;;;;;4967163;28;20490;-76
2022/12/27 04:35:05;;;;;;;5.32;5.00;;;;;;;;;;4962349;28;20031;-76
2022/12/27 04:37:30;;;;;;;5.60;5.20;;;;;;;;;;4967540;28;20749;-76
2022/12/27 04:56:25;;;;;;;5.32;5.03;;;;;;;;;;4963502;28;20037;-76
2022/12/27 05:04:19;;;;;;;5.95;5.55;;;;;;;;;;4965388;28;20030;-76
2022/12/27 05:06:45;;;;;;;5.90;5.45;;;;;;;;;;4967726;28;20449;-76
2022/12/27 05:14:39;;;;;;;5.63;5.32;;;;;;;;;;4964668;28;20038;-76
2022/12/27 05:17:04;;;;;;;5.35;5.05;;;;;;;;;;4965555;28;20142;-77
2022/12/27 05:19:30;;;;;;;7.40;5.35;;;;;;;;;;4962192;28;20049;-76
2022/12/27 05:27:24;;;;;;;7.15;5.80;;;;;;;;;;4967306;28;20035;-76
2022/12/27 05:29:49;;;;;;;6.00;5.57;;;;;;;;;;4966076;28;20039;-76
2022/12/27 05:32:15;;;;;;;23.63;13.13;;;;;;;;;;4966147;28;20220;-75
2022/12/27 05:34:40;;;;;;;7.80;7.00;;;;;;;;;;4967338;28;20295;-75
2022/12/27 05:37:07;;;;;;;6.03;5.63;;;;;;;;;;4968774;28;20038;-75
2022/12/27 05:39:32;;;;;;;10.73;6.97;;;;;;;;;;4967650;28;20046;-76
2022/12/27 05:41:58;;;;;;;7.22;6.15;;;;;;;;;;4965164;28;20027;-76
2022/12/27 05:44:23;;;;;;;8.88;6.80;;;;;;;;;;4968649;28;20051;-76
2022/12/27 05:46:49;;;;;;;6.45;5.90;;;;;;;;;;4969586;28;20323;-76
2022/12/27 05:49:14;;;;;;;6.00;5.30;;;;;;;;;;4968332;28;20035;-76
2022/12/27 05:51:40;;;;;;;6.20;5.60;;;;;;;;;;4965700;28;20067;-76
2022/12/27 05:54:06;;;;;;;5.82;5.32;;;;;;;;;;4967583;28;20030;-76
2022/12/27 05:56:34;;;;;;;5.97;5.57;;;;;;;;;;4969201;28;20121;-76
2022/12/27 05:59:00;;;;;;;5.70;5.40;;;;;;;;;;4962743;28;20046;-76
2022/12/27 06:01:26;;;;;;;5.70;5.30;;;;;;;;;;4966224;28;20030;-76
2022/12/27 06:03:51;;;;;;;5.68;5.28;;;;;;;;;;4967134;28;20093;-76
2022/12/27 06:06:17;;;;;;;5.53;5.22;;;;;;;;;;4968834;28;20138;-76
2022/12/27 06:08:43;;;;;;;5.53;5.15;;;;;;;;;;4965979;28;20513;-76
2022/12/27 06:11:15;;;;;;;6.10;5.60;;;;;;;;;;4968131;28;20044;-76
2022/12/27 06:13:43;;;;;;;8.48;6.38;;;;;;;;;;4968387;28;20042;-76
2022/12/27 06:16:11;;;;;;;5.83;5.47;;;;;;;;;;4969301;28;20126;-76
2022/12/27 06:18:38;;;;;;;7.65;6.47;;;;;;;;;;4966325;28;20042;-76
2022/12/27 06:21:07;;;;;;;16.10;9.43;;;;;;;;;;4967554;28;20401;-76
2022/12/27 06:23:34;;;;;;;9.48;6.95;;;;;;;;;;4968484;28;20035;-76
2022/12/27 06:26:11;;;;;;;10.13;5.93;;;;;;;;;;4968784;28;20062;-75
2022/12/27 06:28:36;;;;;;;7.50;6.97;;;;;;;;;;4958994;28;20086;-76
2022/12/27 06:31:02;;;;;;;5.95;5.45;;;;;;;;;;4964814;28;20036;-75
2022/12/27 06:33:28;;;;;;;7.60;6.93;;;;;;;;;;4950132;28;20035;-75
2022/12/27 06:35:54;;;;;;;11.40;7.57;;;;;;;;;;4953589;28;20114;-77
2022/12/27 06:38:20;;;;;;;10.52;7.18;;;;;;;;;;4945318;28;20149;-78
2022/12/27 06:40:45;;;;;;;12.15;6.30;;;;;;;;;;4961271;28;20043;-74
2022/12/27 06:43:11;;;;;;;10.10;6.47;;;;;;;;;;4966473;28;20047;-75
2022/12/27 06:45:37;;;;;;;5.85;5.47;;;;;;;;;;4968155;28;20378;-75
2022/12/27 06:48:03;;;;;;;8.18;6.25;;;;;;;;;;4964711;28;20062;-75
2022/12/27 06:50:29;;;;;;;6.13;5.70;;;;;;;;;;4969767;28;20034;-73
2022/12/27 06:52:54;;;;;;;6.38;5.72;;;;;;;;;;4971295;28;20101;-74
2022/12/27 06:55:20;;;;;;;9.52;8.57;;;;;;;;;;4971748;28;20031;-76
2022/12/27 06:57:45;;;;;;;12.30;8.65;;;;;;;;;;4970638;28;20081;-76
2022/12/27 07:00:15;;;;;;;18.45;11.20;;;;;;;;;;4969628;28;20045;-77
2022/12/27 07:02:40;;;;;;;14.13;11.10;;;;;;;;;;4976774;28;20098;-76
2022/12/27 07:05:06;;;;;;;15.75;10.90;;;;;;;;;;4972419;28;20030;-76
2022/12/27 07:07:32;;;;;;;11.80;9.15;;;;;;;;;;4971316;28;20045;-77
2022/12/27 07:09:58;;;;;;;12.45;9.27;;;;;;;;;;4971237;28;20035;-76
2022/12/27 07:12:23;;;;;;;8.52;7.47;;;;;;;;;;4971770;28;20031;-76
2022/12/27 07:14:49;;;;;;;8.13;7.15;;;;;;;;;;4972150;28;20046;-76
2022/12/27 07:17:14;;;;;;;14.98;7.32;;;;;;;;;;4968920;28;20145;-76
2022/12/27 07:19:40;;;;;;;11.20;7.85;;;;;;;;;;4977773;28;20129;-76
2022/12/27 07:22:06;;;;;;;9.80;8.30;;;;;;;;;;4963457;28;20035;-76
2022/12/27 07:24:32;;;;;;;21.60;11.85;;;;;;;;;;4959174;28;20034;-76
2022/12/27 07:26:58;;;;;;;12.48;9.65;;;;;;;;;;4964768;28;20046;-76
2022/12/27 07:29:24;;;;;;;15.73;8.82;;;;;;;;;;4963150;28;20037;-76
2022/12/27 07:31:49;;;;;;;16.27;9.68;;;;;;;;;;4964346;28;20042;-76
2022/12/27 07:34:15;;;;;;;12.85;9.60;;;;;;;;;;4964022;28;20330;-76
2022/12/27 07:36:42;;;;;;;10.70;8.80;;;;;;;;;;4950879;28;20046;-75
2022/12/27 07:39:08;;;;;;;9.07;7.72;;;;;;;;;;4953746;29;20066;-76
2022/12/27 07:41:35;;;;;;;8.65;7.75;;;;;;;;;;4947117;28;20065;-76
2022/12/27 07:44:02;;;;;;;7.07;6.55;;;;;;;;;;4970888;28;20397;-76
2022/12/27 07:46:28;;;;;;;6.78;6.28;;;;;;;;;;4968526;28;20509;-76
2022/12/27 07:48:55;;;;;;;8.75;6.72;;;;;;;;;;4961723;28;20042;-76
2022/12/27 07:51:23;;;;;;;9.35;8.48;;;;;;;;;;4964768;28;20509;-76
2022/12/27 07:53:50;;;;;;;6.40;5.80;;;;;;;;;;4983937;28;20019;-76
2022/12/27 07:56:21;;;;;;;6.40;5.90;;;;;;;;;;4989017;28;20046;-76
2022/12/27 07:58:48;;;;;;;7.30;6.60;;;;;;;;;;4976748;28;20462;-77
2022/12/27 08:01:16;;;;;;;7.30;6.57;;;;;;;;;;4963720;28;20399;-76
2022/12/27 08:03:42;;;;;;;7.47;6.88;;;;;;;;;;4962184;28;20053;-76
2022/12/27 08:06:17;;;;;;;7.53;6.40;;;;;;;;;;4965739;28;20035;-76
2022/12/27 08:08:44;;;;;;;8.35;6.57;;;;;;;;;;4963312;28;20046;-76
2022/12/27 08:11:10;;;;;;;6.70;6.10;;;;;;;;;;4964587;28;20041;-76
2022/12/27 08:13:36;;;;;;;8.20;6.75;;;;;;;;;;4965281;28;20418;-76
2022/12/27 08:16:03;;;;;;;6.10;5.43;;;;;;;;;;4963171;28;20035;-76
2022/12/27 08:18:28;;;;;;;6.13;5.70;;;;;;;;;;4961624;28;20042;-76
2022/12/27 08:20:54;;;;;;;6.28;5.82;;;;;;;;;;4968468;28;20089;-77
2022/12/27 08:23:20;;;;;;;6.57;6.05;;;;;;;;;;4963186;28;20126;-76
2022/12/27 08:25:46;;;;;;;6.53;5.93;;;;;;;;;;4960810;28;20047;-76
2022/12/27 08:28:13;;;;;;;6.15;5.65;;;;;;;;;;4960780;28;20089;-76
2022/12/27 08:30:41;;;;;;;6.85;6.20;;;;;;;;;;4961368;28;20375;-76
2022/12/27 08:33:08;;;;;;;6.57;5.97;;;;;;;;;;4964343;28;20065;-76
2022/12/27 08:35:40;;;;;;;6.53;6.00;;;;;;;;;;4963176;28;20038;-76
2022/12/27 08:38:06;;;;;;;9.40;7.88;;;;;;;;;;4961060;28;20026;-76
2022/12/27 08:40:31;;;;;;;6.47;5.97;;;;;;;;;;4963860;28;20070;-77
2022/12/27 08:42:58;;;;;;;6.10;5.70;;;;;;;;;;4960775;28;20033;-76
2022/12/27 08:45:23;;;;;;;6.55;6.05;;;;;;;;;;4962736;28;20066;-76
2022/12/27 08:47:49;;;;;;;6.80;6.30;;;;;;;;;;4962154;28;20081;-76
2022/12/27 08:50:15;;;;;;;6.80;6.30;;;;;;;;;;4961990;28;20073;-76
2022/12/27 08:52:40;;;;;;;6.32;5.82;;;;;;;;;;4963387;28;20039;-76
2022/12/27 08:55:06;;;;;;;6.00;5.65;;;;;;;;;;4962340;28;20031;-76
2022/12/27 08:57:32;;;;;;;7.18;6.68;;;;;;;;;;4961601;28;20470;-76
2022/12/27 08:59:58;;;;;;;7.82;6.97;;;;;;;;;;4959531;28;20043;-76
2022/12/27 09:02:24;;;;;;;6.88;6.30;;;;;;;;;;4963892;28;20035;-76
2022/12/27 09:04:49;;;;;;;6.32;5.70;;;;;;;;;;4958682;28;20043;-77
2022/12/27 09:07:15;;;;;;;8.40;7.57;;;;;;;;;;4961491;28;20038;-76
2022/12/27 09:09:41;;;;;;;6.70;6.10;;;;;;;;;;4963159;28;20046;-76
2022/12/27 09:12:06;;;;;;;16.38;10.43;;;;;;;;;;4964454;28;20038;-76
2022/12/27 09:14:32;;;;;;;10.25;8.90;;;;;;;;;;4957395;28;20034;-76
2022/12/27 09:16:57;;;;;;;8.65;7.25;;;;;;;;;;4961885;28;20049;-76
2022/12/27 09:19:23;;;;;;;7.50;6.25;;;;;;;;;;4962485;28;20566;-76
2022/12/27 09:21:48;;;;;;;7.25;6.60;;;;;;;;;;4959302;28;20466;-77
2022/12/27 09:24:14;;;;;;;7.53;6.40;;;;;;;;;;4963314;28;20594;-76
2022/12/27 09:26:40;;;;;;;6.75;6.28;;;;;;;;;;4960009;28;20039;-77
2022/12/27 09:29:06;;;;;;;14.63;11.63;;;;;;;;;;4960912;28;20313;-76
2022/12/27 09:31:32;;;;;;;12.20;10.50;;;;;;;;;;4960668;28;20114;-77
2022/12/27 09:33:58;;;;;;;8.43;7.72;;;;;;;;;;4961411;28;20049;-76
2022/12/27 09:36:26;;;;;;;9.35;7.72;;;;;;;;;;4961904;28;20030;-77
2022/12/27 09:38:53;;;;;;;11.07;7.45;;;;;;;;;;4963075;28;20066;-76
2022/12/27 09:41:44;;;;;;;9.45;7.40;;;;;;;;;;4961520;28;20031;-76
2022/12/27 09:44:31;;;;;;;10.05;6.97;;;;;;;;;;4959539;28;20490;-76
2022/12/27 09:47:00;;;;;;;7.22;6.72;;;;;;;;;;4961920;28;20026;-77
2022/12/27 09:49:37;;;;;;;7.78;6.85;;;;;;;;;;4960932;28;20038;-77
2022/12/27 09:52:16;;;;;;;6.93;6.43;;;;;;;;;;4961142;28;20109;-76
2022/12/27 09:54:42;;;;;;;7.63;6.90;;;;;;;;;;4959910;28;20451;-76
2022/12/27 09:57:26;;;;;;;7.20;6.60;;;;;;;;;;4960948;28;20086;-77
2022/12/27 09:59:57;;;;;;;8.88;6.88;;;;;;;;;;4958051;28;20039;-76
2022/12/27 10:02:25;;;;;;;8.15;7.40;;;;;;;;;;4960269;28;20157;-77
2022/12/27 10:04:53;;;;;;;8.02;7.32;;;;;;;;;;4959493;28;20043;-76
2022/12/27 10:07:37;;;;;;;7.22;6.55;;;;;;;;;;4962248;28;20039;-76
2022/12/27 10:10:37;;;;;;;7.35;6.50;;;;;;;;;;4962612;28;20038;-76
2022/12/27 10:13:22;;;;;;;6.80;6.20;;;;;;;;;;4958973;28;20039;-76
2022/12/27 10:16:05;;;;;;;8.15;6.65;;;;;;;;;;4935818;28;20130;-76
2022/12/27 10:18:47;;;;;;;9.05;8.07;;;;;;;;;;4961186;28;20496;-75
2022/12/27 10:21:20;;;;;;;7.10;6.63;;;;;;;;;;4956328;28;20066;-76
2022/12/27 10:23:53;;;;;;;8.35;7.65;;;;;;;;;;4969008;28;20216;-77
2022/12/27 10:26:19;;;;;;;13.88;11.45;;;;;;;;;;4971144;28;20035;-77
2022/12/27 10:29:09;;;;;;;10.00;8.82;;;;;;;;;;4968545;28;20031;-76
2022/12/27 10:31:40;;;;;;;8.13;7.53;;;;;;;;;;4970446;28;20502;-76
2022/12/27 10:34:05;;;;;;;8.90;8.30;;;;;;;;;;4969086;28;20039;-76
2022/12/27 10:36:32;;;;;;;9.68;8.88;;;;;;;;;;4969049;28;20031;-76
2022/12/27 10:39:02;;;;;;;9.20;8.27;;;;;;;;;;4968510;28;20066;-76
2022/12/27 10:41:32;;;;;;;7.45;6.90;;;;;;;;;;4970769;28;20039;-77
2022/12/27 10:43:58;;;;;;;8.10;7.43;;;;;;;;;;4963511;28;20495;-76
2022/12/27 10:46:26;;;;;;;6.80;6.40;;;;;;;;;;4966488;28;20035;-77
2022/12/27 10:48:58;;;;;;;6.45;6.05;;;;;;;;;;4970578;28;20085;-77
2022/12/27 10:51:38;;;;;;;8.05;7.38;;;;;;;;;;4966036;28;20782;-76
2022/12/27 10:54:17;;;;;;;16.50;7.40;;;;;;;;;;4969327;28;20038;-76
2022/12/27 10:56:43;;;;;;;;;;;;;;;;;;4965006;28;20054;-76
2022/12/27 10:59:21;;;;;;;8.10;7.30;;;;;;;;;;4966362;28;19936;-77
2022/12/27 11:02:05;;;;;;;8.95;7.10;;;;;;;;;;4964627;28;20133;-77
2022/12/27 11:04:32;;;;;;;10.70;7.43;;;;;;;;;;4969101;28;20031;-76
2022/12/27 11:07:00;;;;;;;7.60;6.90;;;;;;;;;;4967712;28;20125;-77
2022/12/27 11:09:26;;;;;;;7.85;7.15;;;;;;;;;;4967285;28;20128;-77
2022/12/27 11:12:11;;;;;;;9.45;7.38;;;;;;;;;;4969177;28;20062;-77
2022/12/27 11:14:36;;;;;;;7.45;6.93;;;;;;;;;;4967949;28;20050;-76
2022/12/27 11:17:08;;;;;;;8.10;7.30;;;;;;;;;;4967753;28;20477;-76
2022/12/27 11:19:38;;;;;;;7.80;7.10;;;;;;;;;;4979487;28;20050;-77
2022/12/27 11:22:06;;;;;;;8.15;7.43;;;;;;;;;;4968782;28;20081;-77
2022/12/27 11:24:31;;;;;;;7.43;6.95;;;;;;;;;;4968068;28;20519;-77
2022/12/27 11:26:58;;;;;;;7.30;6.80;;;;;;;;;;4965510;28;20042;-76
2022/12/27 11:29:27;;;;;;;8.00;6.72;;;;;;;;;;4963622;28;20153;-77
2022/12/27 11:31:54;;;;;;;7.07;6.63;;;;;;;;;;4965680;28;20054;-77
2022/12/27 11:34:30;;;;;;;7.60;6.90;;;;;;;;;;4965959;28;20074;-77
2022/12/27 11:37:05;;;;;;;6.90;6.50;;;;;;;;;;4965007;28;20034;-77
2022/12/27 11:39:42;;;;;;;7.35;6.85;;;;;;;;;;4971797;28;20086;-77
2022/12/27 11:42:31;;;;;;;7.22;6.72;;;;;;;;;;4978246;28;20043;-76
2022/12/27 11:45:18;;;;;;;7.32;6.72;;;;;;;;;;4974087;28;20490;-76
2022/12/27 11:47:52;;;;;;;7.35;6.70;;;;;;;;;;4964421;28;20070;-76
2022/12/27 11:50:23;;;;;;;7.82;7.13;;;;;;;;;;4967945;28;20076;-77
2022/12/27 11:53:46;;;;;;;8.35;6.82;;;;;;;;;;4964567;28;20565;-76
2022/12/27 11:56:25;;;;;;;6.97;6.47;;;;;;;;;;4965079;28;20434;-76
2022/12/27 11:59:12;;;;;;;7.23;6.70;;;;;;;;;;4968052;28;20061;-76
2022/12/27 12:01:52;;;;;;;6.97;6.57;;;;;;;;;;4964141;28;20157;-76
2022/12/27 12:04:42;;;;;;;7.30;6.70;;;;;;;;;;4982377;28;20030;-76
2022/12/27 12:07:32;;;;;;;7.15;6.65;;;;;;;;;;4983222;28;20442;-77
2022/12/27 12:10:09;;;;;;;7.07;6.47;;;;;;;;;;4984280;28;20043;-76
2022/12/27 12:12:57;;;;;;;7.10;6.45;;;;;;;;;;4983213;28;20054;-76
2022/12/27 12:15:41;;;;;;;6.63;6.20;;;;;;;;;;4984632;28;20115;-76
2022/12/27 12:18:41;;;;;;;9.63;6.88;;;;;;;;;;4984527;28;20540;-77
2022/12/27 12:21:18;;;;;;;;;;;;;;;;;;4973371;28;20144;-77
2022/12/27 12:24:06;;;;;;;6.82;6.22;;;;;;;;;;4980830;28;20020;-76
2022/12/27 12:26:59;;;;;;;6.55;6.13;;;;;;;;;;4976095;28;20102;-77
2022/12/27 12:29:37;;;;;;;6.25;5.75;;;;;;;;;;4959884;28;20078;-76
2022/12/27 12:32:32;;;;;;;6.68;6.13;;;;;;;;;;4965249;28;20101;-76
2022/12/27 12:35:35;;;;;;;7.07;6.47;;;;;;;;;;4962395;28;20537;-76
2022/12/27 12:38:03;;;;;;;6.90;6.50;;;;;;;;;;4966624;28;20035;-76
2022/12/27 12:40:47;;;;;;;6.85;6.35;;;;;;;;;;4967555;28;20351;-77
2022/12/27 12:43:52;;;;;;;6.60;6.00;;;;;;;;;;4965238;28;20034;-77
2022/12/27 12:46:40;;;;;;;6.88;6.32;;;;;;;;;;4959552;28;20581;-76
2022/12/27 12:49:24;;;;;;;7.10;6.50;;;;;;;;;;4965765;28;20030;-76
2022/12/27 12:52:08;;;;;;;6.93;6.32;;;;;;;;;;4964812;28;20195;-77
2022/12/27 12:55:03;;;;;;;7.30;6.70;;;;;;;;;;4965401;28;20410;-76
2022/12/27 12:57:43;;;;;;;7.22;6.63;;;;;;;;;;4963850;28;20078;-76
2022/12/27 13:00:18;;;;;;;7.15;6.63;;;;;;;;;;4954234;28;20466;-76
2022/12/27 13:02:47;;;;;;;6.72;6.22;;;;;;;;;;4963849;23;20465;31
2022/12/27 13:05:38;;;;;;;7.30;6.60;;;;;;;;;;4926291;29;20107;-72
2022/12/27 13:08:29;;;;;;;7.13;6.65;;;;;;;;;;4943109;28;20126;-73
2022/12/27 13:11:16;;;;;;;7.85;6.75;;;;;;;;;;4926246;29;20043;-72
2022/12/27 13:14:04;;;;;;;7.10;6.57;;;;;;;;;;4940807;28;20043;-72
2022/12/27 13:16:46;;;;;;;8.97;6.83;;;;;;;;;;4926864;29;20032;-72
2022/12/27 13:19:30;;;;;;;6.75;6.25;;;;;;;;;;4928201;29;20283;-72
2022/12/27 13:22:31;;;;;;;7.55;6.80;;;;;;;;;;4926666;29;20066;-72
2022/12/27 13:24:59;;;;;;;6.93;6.43;;;;;;;;;;4927857;29;20324;-72
2022/12/27 13:27:34;;;;;;;6.70;6.03;;;;;;;;;;4926821;29;20054;-72
2022/12/27 13:30:19;;;;;;;6.50;6.00;;;;;;;;;;4926458;29;20821;-72
2022/12/27 13:32:57;;;;;;;9.63;6.68;;;;;;;;;;4928298;29;20074;-72
2022/12/27 13:35:49;;;;;;;6.93;6.43;;;;;;;;;;4927931;29;20110;-72
2022/12/27 13:38:32;;;;;;;7.20;6.70;;;;;;;;;;4926502;29;20390;-72
2022/12/27 13:41:30;;;;;;;6.93;6.43;;;;;;;;;;4927756;29;20035;-72
2022/12/27 13:44:33;;;;;;;6.68;5.78;;;;;;;;;;4927780;29;20039;-72
2022/12/27 13:47:11;;;;;;;11.95;6.35;;;;;;;;;;4925002;29;20542;-72
2022/12/27 13:49:58;;;;;;;6.63;6.22;;;;;;;;;;4927029;29;20048;-72
2022/12/27 13:52:30;;;;;;;6.30;5.93;;;;;;;;;;4934070;29;20083;-72
2022/12/27 13:55:10;;;;;;;6.20;5.78;;;;;;;;;;4916194;29;20074;-73
2022/12/27 13:57:35;;;;;;;6.93;6.43;;;;;;;;;;4924631;29;20043;-73
2022/12/27 14:00:11;;;;;;;6.45;5.95;;;;;;;;;;4925811;29;20043;-73
2022/12/27 14:02:56;;;;;;;7.20;6.60;;;;;;;;;;4925294;29;20387;-73
2022/12/27 14:06:07;;;;;;;7.63;6.35;;;;;;;;;;4925372;29;20095;-73
2022/12/27 14:08:58;;;;;;;7.38;6.63;;;;;;;;;;4923871;28;20118;-72
2022/12/27 14:12:02;;;;;;;7.22;6.55;;;;;;;;;;4924928;29;20039;-72
2022/12/27 14:14:29;;;;;;;7.03;6.43;;;;;;;;;;4942353;28;20494;-72
2022/12/27 14:17:42;;;;;;;6.30;5.70;;;;;;;;;;4929086;28;20059;-72
2022/12/27 14:20:32;;;;;;;7.88;6.95;;;;;;;;;;4943008;28;20051;-72
2022/12/27 14:23:10;;;;;;;8.75;7.85;;;;;;;;;;4939570;28;20047;-72
2022/12/27 14:25:58;;;;;;;7.00;6.15;;;;;;;;;;4940954;28;20057;-74
2022/12/27 14:28:42;;;;;;;6.55;6.15;;;;;;;;;;4940821;28;20047;-73
2022/12/27 14:31:31;;;;;;;6.85;6.25;;;;;;;;;;4940410;28;20055;-73
2022/12/27 14:34:24;;;;;;;9.30;6.32;;;;;;;;;;4941858;28;20564;-72
2022/12/27 14:37:25;;;;;;;7.25;6.65;;;;;;;;;;4941041;28;20455;-72
2022/12/27 14:40:14;;;;;;;7.47;6.88;;;;;;;;;;4896120;29;20044;-73
2022/12/27 14:43:17;;;;;;;7.90;7.20;;;;;;;;;;4890304;29;20085;-72
2022/12/27 14:46:01;;;;;;;12.07;6.90;;;;;;;;;;4904115;29;20044;-72
2022/12/27 14:48:41;;;;;;;7.35;6.75;;;;;;;;;;4898642;29;20080;-72
2022/12/27 14:51:42;;;;;;;7.50;6.80;;;;;;;;;;4892823;29;20124;-72
2022/12/27 14:54:38;;;;;;;7.68;6.97;;;;;;;;;;4883519;29;20048;-72
2022/12/27 14:57:29;;;;;;;7.43;5.90;;;;;;;;;;4896666;29;20095;-74
2022/12/27 15:00:20;;;;;;;7.97;6.53;;;;;;;;;;4899581;29;20508;-72
2022/12/27 15:03:04;;;;;;;7.38;6.70;;;;;;;;;;4900234;29;20052;-72
2022/12/27 15:05:32;;;;;;;8.43;6.60;;;;;;;;;;4899031;29;20832;-72
2022/12/27 15:08:10;;;;;;;7.97;7.28;;;;;;;;;;4895072;29;20059;-73
2022/12/27 15:11:10;;;;;;;7.90;7.10;;;;;;;;;;4899584;29;20571;-72
2022/12/27 15:13:57;;;;;;;8.15;7.47;;;;;;;;;;4904391;29;20562;-73
2022/12/27 15:16:45;;;;;;;8.00;7.30;;;;;;;;;;4926548;29;20036;-72
2022/12/27 15:19:32;;;;;;;8.05;7.10;;;;;;;;;;4924789;29;20079;-72
2022/12/27 15:22:44;;;;;;;7.57;6.97;;;;;;;;;;4923963;29;20473;-72
2022/12/27 15:25:27;;;;;;;7.53;6.78;;;;;;;;;;4924636;29;20040;-72
2022/12/27 15:28:12;;;;;;;10.07;6.80;;;;;;;;;;4922389;29;20443;-72
2022/12/27 15:30:56;;;;;;;7.28;6.60;;;;;;;;;;4921641;29;20061;-73
2022/12/27 15:33:48;;;;;;;7.45;6.78;;;;;;;;;;4928174;29;20530;-73
2022/12/27 15:36:19;;;;;;;7.43;6.82;;;;;;;;;;4913731;29;20450;-73
2022/12/27 15:38:52;;;;;;;7.40;6.85;;;;;;;;;;4919845;29;20167;-73
2022/12/27 15:41:49;;;;;;;7.53;6.85;;;;;;;;;;4926573;29;20038;-73
2022/12/27 15:44:34;;;;;;;7.57;6.82;;;;;;;;;;4922470;29;20035;-73
2022/12/27 15:47:25;;;;;;;6.80;6.40;;;;;;;;;;4922459;29;20131;-69
2022/12/27 15:49:58;;;;;;;6.50;6.05;;;;;;;;;;4922936;29;20043;-69
2022/12/27 15:52:59;;;;;;;6.65;6.10;;;;;;;;;;4924524;29;20126;-69
2022/12/27 15:55:57;;;;;;;7.53;6.95;;;;;;;;;;4922046;29;20458;-69
2022/12/27 15:58:23;;;;;;;7.30;6.68;;;;;;;;;;4926277;29;20155;-69
2022/12/27 16:01:14;;;;;;;7.80;7.10;;;;;;;;;;4927090;29;20727;-70
2022/12/27 16:03:45;;;;;;;7.25;6.65;;;;;;;;;;4925651;29;20040;-70
2022/12/27 16:06:32;;;;;;;10.23;6.85;;;;;;;;;;4925969;29;20091;-69
2022/12/27 16:09:30;;;;;;;7.43;6.75;;;;;;;;;;4924348;29;20040;-69
2022/12/27 16:11:58;;;;;;;7.05;6.43;;;;;;;;;;4923285;29;20071;-69
2022/12/27 16:14:33;;;;;;;8.02;6.88;;;;;;;;;;4918539;29;20059;-69
2022/12/27 16:17:30;;;;;;;7.57;6.88;;;;;;;;;;4926592;29;20392;-70
2022/12/27 16:20:02;;;;;;;8.73;7.82;;;;;;;;;;4918798;29;20487;-70
2022/12/27 16:22:32;;;;;;;8.02;6.93;;;;;;;;;;4927085;29;20075;-70
2022/12/27 16:25:20;;;;;;;12.15;7.43;;;;;;;;;;4932066;29;20034;-69
2022/12/27 16:27:53;;;;;;;10.25;8.60;;;;;;;;;;4930212;29;20087;-70
2022/12/27 16:30:40;;;;;;;13.00;8.68;;;;;;;;;;4929169;29;20038;-69
2022/12/27 16:33:21;;;;;;;15.10;12.40;;;;;;;;;;4931105;29;20066;-69
2022/12/27 16:36:14;;;;;;;38.15;21.30;;;;;;;;;;4924813;29;20071;-70
2022/12/27 16:39:01;;;;;;;18.88;13.75;;;;;;;;;;4922954;29;20056;-69
2022/12/27 16:41:34;;;;;;;22.05;14.57;;;;;;;;;;4924956;29;20051;-70
2022/12/27 16:43:59;;;;;;;11.68;10.48;;;;;;;;;;4921285;29;20042;-69
2022/12/27 16:46:50;;;;;;;37.88;19.10;;;;;;;;;;4923658;29;20050;-69
2022/12/27 16:50:07;;;;;;;18.50;13.82;;;;;;;;;;4924605;29;20039;-69
2022/12/27 16:52:55;;;;;;;13.57;10.80;;;;;;;;;;4930666;28;20123;-69
2022/12/27 16:55:51;;;;;;;15.90;11.32;;;;;;;;;;4919025;29;20392;-70
2022/12/27 16:58:17;;;;;;;16.88;10.50;;;;;;;;;;4922648;29;20534;-70
2022/12/27 17:00:54;;;;;;;13.57;10.82;;;;;;;;;;4924457;29;20122;-69
2022/12/27 17:03:19;;;;;;;17.85;9.80;;;;;;;;;;4922446;29;20098;-69
2022/12/27 17:05:46;;;;;;;13.55;9.52;;;;;;;;;;4922427;29;20126;-69
2022/12/27 17:08:22;;;;;;;16.13;11.45;;;;;;;;;;4923357;29;20050;-71
2022/12/27 17:10:51;;;;;;;11.23;9.57;;;;;;;;;;4921795;29;20062;-70
2022/12/27 17:13:34;;;;;;;14.20;10.70;;;;;;;;;;4923710;29;20043;-69